createdAt,value
2019-04-06T00:01:06.842Z,44.04
2019-04-06T00:03:37.001Z,43.97
2019-04-06T00:06:05.998Z,43.96
2019-04-06T00:08:34.629Z,44.37
2019-04-06T00:11:03.296Z,44.42
2019-04-06T00:13:31.948Z,44.65
2019-04-06T00:16:00.753Z,44.74
2019-04-06T00:18:29.495Z,45.05
2019-04-06T00:20:58.215Z,45.37
2019-04-06T00:23:26.846Z,45.49
2019-04-06T00:25:55.418Z,45.55
2019-04-06T00:28:24.091Z,45.51
2019-04-06T00:30:54.403Z,45.49
2019-04-06T00:33:24.645Z,45.14
2019-04-06T00:35:53.292Z,45.05
2019-04-06T00:38:26.994Z,45.48
2019-04-06T00:40:55.639Z,45.42
2019-04-06T00:43:24.218Z,45.40
2019-04-06T00:45:52.835Z,45.37
2019-04-06T00:48:22.077Z,45.21
2019-04-06T00:50:50.731Z,44.69
2019-04-06T00:53:19.420Z,44.09
2019-04-06T00:55:55.470Z,44.00
2019-04-06T00:58:18.438Z,44.02
2019-04-06T01:00:47.093Z,43.75
2019-04-06T01:03:15.747Z,44.38
2019-04-06T01:05:44.773Z,44.93
2019-04-06T01:08:13.344Z,45.08
2019-04-06T01:10:41.943Z,45.74
2019-04-06T01:13:11.516Z,45.90
2019-04-06T01:15:40.172Z,45.48
2019-04-06T01:18:08.818Z,45.60
2019-04-06T01:20:37.441Z,45.84
2019-04-06T01:23:06.084Z,46.06
2019-04-06T01:25:35.542Z,46.04
2019-04-06T01:28:04.471Z,46.13
2019-04-06T01:30:33.101Z,46.19
2019-04-06T01:33:01.756Z,46.78
2019-04-06T01:35:30.445Z,47.04
2019-04-06T01:37:59.084Z,47.07
2019-04-06T01:40:29.177Z,47.09
2019-04-06T01:42:57.907Z,46.92
2019-04-06T01:45:26.447Z,46.59
2019-04-06T01:47:55.082Z,46.40
2019-04-06T01:50:24.194Z,46.45
2019-04-06T01:52:52.777Z,46.38
2019-04-06T01:55:22.217Z,46.46
2019-04-06T01:57:51.233Z,46.84
2019-04-06T02:00:19.888Z,46.70
2019-04-06T02:02:50.115Z,46.88
2019-04-06T02:05:18.822Z,47.17
2019-04-06T02:07:47.743Z,46.92
2019-04-06T02:10:16.387Z,47.38
2019-04-06T02:12:45.078Z,47.03
2019-04-06T02:15:13.826Z,47.38
2019-04-06T02:17:42.476Z,47.46
2019-04-06T02:20:11.685Z,46.85
2019-04-06T02:22:40.312Z,46.53
2019-04-06T02:25:09.260Z,46.39
2019-04-06T02:27:37.946Z,46.69
2019-04-06T02:30:27.300Z,46.08
2019-04-06T02:33:03.951Z,47.24
2019-04-06T02:35:50.315Z,46.63
2019-04-06T02:38:20.547Z,46.85
2019-04-06T02:41:06.808Z,47.21
2019-04-06T02:43:39.990Z,47.66
2019-04-06T02:46:08.638Z,46.90
2019-04-06T02:48:37.268Z,46.82
2019-04-06T02:51:05.911Z,47.53
2019-04-06T02:53:34.567Z,48.17
2019-04-06T02:56:03.230Z,48.30
2019-04-06T02:58:31.872Z,48.36
2019-04-06T03:01:00.923Z,48.87
2019-04-06T03:03:29.905Z,48.76
2019-04-06T03:05:58.567Z,49.07
2019-04-06T03:08:27.314Z,49.30
2019-04-06T03:10:55.963Z,49.23
2019-04-06T03:13:26.389Z,49.07
2019-04-06T03:15:55.076Z,49.02
2019-04-06T03:18:23.723Z,49.22
2019-04-06T03:20:52.365Z,49.20
2019-04-06T03:23:24.552Z,49.27
2019-04-06T03:25:53.281Z,49.34
2019-04-06T03:28:21.933Z,48.85
2019-04-06T03:30:51.150Z,47.02
2019-04-06T03:33:20.076Z,48.46
2019-04-06T03:35:50.582Z,47.75
2019-04-06T03:38:19.586Z,48.92
2019-04-06T03:40:48.192Z,48.56
2019-04-06T03:43:16.834Z,48.18
2019-04-06T03:45:46.942Z,48.56
2019-04-06T03:48:15.548Z,48.35
2019-04-06T03:50:44.281Z,48.36
2019-04-06T03:53:14.295Z,49.07
2019-04-06T03:55:42.937Z,48.68
2019-04-06T03:58:11.594Z,49.54
2019-04-06T04:00:40.244Z,49.32
2019-04-06T04:03:08.869Z,50.07
2019-04-06T04:05:38.731Z,50.06
2019-04-06T04:08:07.423Z,49.81
2019-04-06T04:10:37.929Z,49.46
2019-04-06T04:13:06.673Z,49.90
2019-04-06T04:15:35.375Z,49.44
2019-04-06T04:18:09.064Z,49.45
2019-04-06T04:20:37.706Z,49.07
2019-04-06T04:23:06.405Z,49.14
2019-04-06T04:25:37.117Z,49.32
2019-04-06T04:28:05.833Z,49.69
2019-04-06T04:30:34.987Z,49.65
2019-04-06T04:33:03.673Z,49.46
2019-04-06T04:35:32.427Z,50.23
2019-04-06T04:38:01.821Z,50.53
2019-04-06T04:40:30.476Z,49.93
2019-04-06T04:42:59.105Z,48.73
2019-04-06T04:45:27.870Z,48.95
2019-04-06T04:47:56.659Z,48.08
2019-04-06T04:50:25.284Z,49.02
2019-04-06T04:52:53.972Z,49.05
2019-04-06T04:55:22.642Z,48.61
2019-04-06T04:57:51.671Z,48.37
2019-04-06T05:00:20.355Z,48.08
2019-04-06T05:02:48.983Z,47.18
2019-04-06T05:05:17.572Z,46.92
2019-04-06T05:07:46.273Z,47.65
2019-04-06T05:10:14.941Z,47.19
2019-04-06T05:12:43.621Z,47.36
2019-04-06T05:15:23.920Z,46.77
2019-04-06T05:17:52.698Z,47.34
2019-04-06T05:20:22.075Z,47.54
2019-04-06T05:22:51.565Z,47.83
2019-04-06T05:25:20.202Z,47.50
2019-04-06T05:27:52.225Z,47.38
2019-04-06T05:30:19.347Z,47.67
2019-04-06T05:32:47.946Z,47.38
2019-04-06T05:35:16.603Z,47.99
2019-04-06T05:37:45.279Z,48.00
2019-04-06T05:40:13.934Z,47.50
2019-04-06T05:42:42.605Z,47.96
2019-04-06T05:45:11.403Z,47.40
2019-04-06T05:47:39.983Z,47.24
2019-04-06T05:50:09.023Z,46.93
2019-04-06T05:52:38.078Z,46.56
2019-04-06T05:55:07.288Z,46.59
2019-04-06T05:57:37.241Z,46.58
2019-04-06T06:00:10.504Z,46.48
2019-04-06T06:02:42.009Z,45.63
2019-04-06T06:05:11.176Z,45.85
2019-04-06T06:07:40.168Z,45.88
2019-04-06T06:10:09.047Z,46.05
2019-04-06T06:12:37.689Z,45.64
2019-04-06T06:15:07.942Z,45.71
2019-04-06T06:17:37.974Z,46.03
2019-04-06T06:20:08.186Z,46.59
2019-04-06T06:22:36.839Z,45.94
2019-04-06T06:25:08.581Z,46.66
2019-04-06T06:27:37.275Z,45.99
2019-04-06T06:30:08.984Z,46.02
2019-04-06T06:32:37.658Z,45.56
2019-04-06T06:35:07.555Z,45.47
2019-04-06T06:37:36.570Z,44.78
2019-04-06T06:40:06.832Z,44.32
2019-04-06T06:42:35.484Z,44.70
2019-04-06T06:45:05.200Z,43.97
2019-04-06T06:47:33.849Z,43.80
2019-04-06T06:50:02.799Z,43.72
2019-04-06T06:52:31.423Z,43.47
2019-04-06T06:55:01.069Z,43.26
2019-04-06T06:57:31.181Z,42.03
2019-04-06T06:59:59.780Z,42.99
2019-04-06T07:02:28.596Z,42.51
2019-04-06T07:04:57.248Z,41.94
2019-04-06T07:07:25.868Z,41.46
2019-04-06T07:10:04.427Z,41.58
2019-04-06T07:12:25.335Z,42.09
2019-04-06T07:14:54.584Z,41.96
2019-04-06T07:17:23.345Z,42.38
2019-04-06T07:19:51.888Z,43.66
2019-04-06T07:22:22.298Z,42.59
2019-04-06T07:24:51.139Z,42.77
2019-04-06T07:27:19.968Z,42.32
2019-04-06T07:29:50.172Z,42.58
2019-04-06T07:32:18.898Z,42.75
2019-04-06T07:34:47.559Z,42.37
2019-04-06T07:37:16.156Z,41.54
2019-04-06T07:39:45.137Z,41.03
2019-04-06T07:42:13.788Z,40.09
2019-04-06T07:44:44.021Z,38.53
2019-04-06T07:47:13.242Z,37.98
2019-04-06T07:49:42.091Z,36.47
2019-04-06T07:52:10.751Z,37.48
2019-04-06T07:54:39.388Z,36.14
2019-04-06T07:57:08.105Z,36.70
2019-04-06T07:59:36.761Z,35.78
2019-04-06T08:02:05.416Z,35.51
2019-04-06T08:04:34.121Z,38.57
2019-04-06T08:07:02.775Z,36.45
2019-04-06T08:09:31.813Z,37.70
2019-04-06T08:12:00.642Z,38.33
2019-04-06T08:14:29.368Z,35.75
2019-04-06T08:16:58.021Z,35.62
2019-04-06T08:19:26.683Z,35.51
2019-04-06T08:21:55.450Z,35.31
2019-04-06T08:24:24.194Z,35.58
2019-04-06T08:26:52.778Z,35.09
2019-04-06T08:29:21.433Z,35.01
2019-04-06T08:31:50.531Z,35.32
2019-04-06T08:34:19.183Z,35.03
2019-04-06T08:36:48.181Z,34.78
2019-04-06T08:39:20.083Z,34.10
2019-04-06T08:41:49.073Z,33.94
2019-04-06T08:44:17.827Z,33.83
2019-04-06T08:46:46.658Z,33.39
2019-04-06T08:49:15.369Z,32.57
2019-04-06T08:51:44.351Z,31.59
2019-04-06T08:54:13.344Z,33.05
2019-04-06T08:56:42.086Z,33.11
2019-04-06T08:59:13.146Z,32.66
2019-04-06T09:01:41.200Z,32.35
2019-04-06T09:04:09.928Z,31.98
2019-04-06T09:06:38.554Z,31.84
2019-04-06T09:09:08.063Z,32.08
2019-04-06T09:11:36.824Z,31.73
2019-04-06T09:14:05.476Z,30.69
2019-04-06T09:16:34.248Z,31.49
2019-04-06T09:19:03.043Z,29.85
2019-04-06T09:21:31.713Z,29.57
2019-04-06T09:24:00.474Z,30.46
2019-04-06T09:26:29.349Z,30.88
2019-04-06T09:28:59.548Z,29.37
2019-04-06T09:31:28.587Z,29.61
2019-04-06T09:33:57.173Z,27.83
2019-04-06T09:36:25.841Z,29.48
2019-04-06T09:38:54.614Z,28.25
2019-04-06T09:41:25.891Z,29.56
2019-04-06T09:43:53.675Z,29.27
2019-04-06T09:46:32.999Z,29.27
2019-04-06T09:49:16.936Z,29.04
2019-04-06T09:51:59.512Z,27.50
2019-04-06T09:54:35.644Z,27.56
2019-04-06T09:57:21.843Z,26.18
2019-04-06T09:59:55.315Z,26.18
2019-04-06T10:02:31.845Z,24.58
2019-04-06T10:05:08.475Z,25.16
2019-04-06T10:07:40.313Z,23.25
2019-04-06T10:10:17.193Z,22.89
2019-04-06T10:12:59.442Z,23.14
2019-04-06T10:15:36.561Z,23.39
2019-04-06T10:18:07.113Z,23.20
2019-04-06T10:20:49.514Z,23.44
2019-04-06T10:23:38.129Z,23.73
2019-04-06T10:26:27.285Z,24.90
2019-04-06T10:29:15.977Z,24.88
2019-04-06T10:31:55.050Z,24.77
2019-04-06T10:34:28.157Z,24.53
2019-04-06T10:36:58.753Z,24.24
2019-04-06T10:39:31.875Z,24.59
2019-04-06T10:42:02.141Z,24.36
2019-04-06T10:44:35.360Z,25.22
2019-04-06T10:47:12.981Z,25.24
2019-04-06T10:49:43.265Z,25.24
2019-04-06T10:52:31.267Z,25.10
2019-04-06T10:55:10.514Z,25.10
2019-04-06T10:57:42.347Z,25.16
2019-04-06T11:00:12.731Z,25.16
2019-04-06T11:02:58.375Z,25.20
2019-04-06T11:05:28.672Z,25.36
2019-04-06T11:08:02.016Z,25.36
2019-04-06T11:10:48.420Z,26.02
2019-04-06T11:13:37.148Z,25.89
2019-04-06T11:16:07.459Z,26.11
2019-04-06T11:18:54.320Z,26.18
2019-04-06T11:21:36.814Z,26.23
2019-04-06T11:24:09.822Z,26.64
2019-04-06T11:26:56.849Z,26.64
2019-04-06T11:29:42.382Z,26.38
2019-04-06T11:32:35.749Z,26.30
2019-04-06T11:35:03.731Z,26.53
2019-04-06T11:37:34.196Z,25.53
2019-04-06T11:40:07.220Z,25.75
2019-04-06T11:42:43.280Z,25.44
2019-04-06T11:45:31.347Z,25.44
2019-04-06T11:48:04.731Z,25.00
2019-04-06T11:50:39.412Z,24.74
2019-04-06T11:53:10.064Z,24.15
2019-04-06T11:55:49.391Z,24.71
2019-04-06T11:58:23.096Z,25.03
2019-04-06T12:00:53.496Z,24.61
2019-04-06T12:03:26.726Z,25.48
2019-04-06T12:05:59.945Z,25.02
2019-04-06T12:08:32.534Z,24.99
2019-04-06T12:11:05.562Z,24.78
2019-04-06T12:13:38.382Z,25.54
2019-04-06T12:16:08.671Z,25.32
2019-04-06T12:18:41.832Z,25.13
2019-04-06T12:21:15.109Z,25.12
2019-04-06T12:23:57.348Z,25.43
2019-04-06T12:26:33.666Z,25.27
2019-04-06T12:29:09.870Z,25.05
2019-04-06T12:31:42.667Z,25.21
2019-04-06T12:34:29.313Z,25.22
2019-04-06T12:36:59.601Z,24.99
2019-04-06T12:39:29.907Z,24.60
2019-04-06T12:42:00.166Z,24.03
2019-04-06T12:44:45.527Z,24.35
2019-04-06T12:47:19.214Z,24.39
2019-04-06T12:49:52.599Z,24.29
2019-04-06T12:52:29.208Z,23.89
2019-04-06T12:55:00.121Z,24.77
2019-04-06T12:57:46.552Z,25.39
2019-04-06T13:00:19.546Z,25.81
2019-04-06T13:02:55.910Z,25.69
2019-04-06T13:05:36.425Z,25.50
2019-04-06T13:08:06.744Z,25.26
2019-04-06T13:10:53.681Z,26.25
2019-04-06T13:13:29.932Z,26.02
2019-04-06T13:16:06.414Z,26.62
2019-04-06T13:18:55.719Z,26.43
2019-04-06T13:21:32.061Z,27.04
2019-04-06T13:24:20.470Z,27.07
2019-04-06T13:26:50.731Z,27.04
2019-04-06T13:29:23.694Z,27.37
2019-04-06T13:32:06.226Z,27.14
2019-04-06T13:34:52.878Z,27.17
2019-04-06T13:37:41.256Z,27.00
2019-04-06T13:40:23.620Z,27.35
2019-04-06T13:43:12.133Z,27.37
2019-04-06T13:45:45.011Z,27.37
2019-04-06T13:48:28.531Z,26.95
2019-04-06T13:51:01.813Z,27.34
2019-04-06T13:53:50.152Z,27.17
2019-04-06T13:56:26.428Z,27.61
2019-04-06T13:59:07.518Z,27.78
2019-04-06T14:01:37.827Z,27.47
2019-04-06T14:04:23.436Z,27.49
2019-04-06T14:07:11.629Z,27.37
2019-04-06T14:09:42.259Z,27.32
2019-04-06T14:12:29.392Z,27.37
2019-04-06T14:15:23.849Z,27.24
2019-04-06T14:18:06.030Z,27.38
2019-04-06T14:20:54.393Z,27.65
2019-04-06T14:23:33.936Z,27.63
2019-04-06T14:26:20.725Z,27.71
2019-04-06T14:29:10.241Z,27.62
2019-04-06T14:31:52.361Z,28.11
2019-04-06T14:34:28.501Z,28.31
2019-04-06T14:37:15.279Z,28.68
2019-04-06T14:40:01.749Z,28.17
2019-04-06T14:42:33.043Z,28.61
2019-04-06T14:45:03.421Z,28.54
2019-04-06T14:47:36.824Z,28.62
2019-04-06T14:50:14.299Z,28.69
2019-04-06T14:53:02.523Z,28.66
2019-04-06T14:55:35.847Z,28.71
2019-04-06T14:58:09.178Z,28.77
2019-04-06T15:00:57.900Z,28.91
2019-04-06T15:03:28.190Z,29.33
2019-04-06T15:06:01.063Z,29.75
2019-04-06T15:08:46.707Z,29.82
2019-04-06T15:11:21.729Z,29.66
2019-04-06T15:13:55.259Z,30.00
2019-04-06T15:16:28.329Z,30.33
2019-04-06T15:19:14.045Z,30.61
2019-04-06T15:21:51.355Z,30.61
2019-04-06T15:24:24.730Z,30.86
2019-04-06T15:27:02.313Z,31.12
2019-04-06T15:29:47.565Z,31.40
2019-04-06T15:32:20.958Z,31.40
2019-04-06T15:34:54.020Z,31.20
2019-04-06T15:37:24.318Z,31.20
2019-04-06T15:40:11.444Z,31.60
2019-04-06T15:42:41.679Z,31.67
2019-04-06T15:45:27.350Z,31.61
2019-04-06T15:47:58.134Z,31.84
2019-04-06T15:50:44.914Z,31.96
2019-04-06T15:53:15.144Z,31.90
2019-04-06T15:55:51.290Z,31.84
2019-04-06T15:58:27.045Z,31.99
2019-04-06T16:01:13.897Z,32.17
2019-04-06T16:04:01.229Z,32.40
2019-04-06T16:06:31.613Z,32.45
2019-04-06T16:09:14.226Z,32.64
2019-04-06T16:12:02.484Z,32.80
2019-04-06T16:14:54.077Z,32.96
2019-04-06T16:17:43.368Z,32.96
2019-04-06T16:20:32.467Z,33.28
2019-04-06T16:23:19.047Z,33.39
2019-04-06T16:25:49.242Z,33.50
2019-04-06T16:28:22.338Z,33.61
2019-04-06T16:31:01.967Z,33.67
2019-04-06T16:33:32.204Z,33.77
2019-04-06T16:36:02.491Z,33.93
2019-04-06T16:38:45.045Z,33.82
2019-04-06T16:41:31.350Z,34.02
2019-04-06T16:44:03.406Z,34.05
2019-04-06T16:46:48.662Z,34.18
2019-04-06T16:49:35.817Z,34.19
2019-04-06T16:52:21.671Z,34.49
2019-04-06T16:55:01.004Z,34.57
2019-04-06T16:57:34.240Z,34.72
2019-04-06T17:00:17.043Z,34.86
2019-04-06T17:02:55.125Z,34.99
2019-04-06T17:05:41.819Z,35.13
2019-04-06T17:08:19.008Z,35.31
2019-04-06T17:11:08.242Z,35.34
2019-04-06T17:13:44.445Z,35.39
2019-04-06T17:16:28.408Z,35.54
2019-04-06T17:18:58.922Z,35.71
2019-04-06T17:21:29.231Z,35.76
2019-04-06T17:24:02.291Z,35.91
2019-04-06T17:26:35.450Z,35.99
2019-04-06T17:29:08.648Z,36.21
2019-04-06T17:31:38.996Z,36.35
2019-04-06T17:34:12.050Z,36.50
2019-04-06T17:36:45.345Z,36.59
2019-04-06T17:39:16.084Z,36.91
2019-04-06T17:41:46.528Z,37.08
2019-04-06T17:44:17.268Z,37.30
2019-04-06T17:47:02.652Z,37.53
2019-04-06T17:49:50.679Z,37.50
2019-04-06T17:52:38.014Z,37.37
2019-04-06T17:55:25.298Z,37.51
2019-04-06T17:58:14.176Z,37.78
2019-04-06T18:00:47.485Z,37.71
2019-04-06T18:03:34.303Z,37.67
2019-04-06T18:06:07.300Z,37.78
2019-04-06T18:08:54.008Z,37.67
2019-04-06T18:11:46.090Z,37.56
2019-04-06T18:14:10.136Z,37.63
2019-04-06T18:16:38.977Z,37.52
2019-04-06T18:19:08.995Z,37.46
2019-04-06T18:21:39.087Z,37.38
2019-04-06T18:24:07.940Z,37.38
2019-04-06T18:26:39.623Z,37.41
2019-04-06T18:29:08.319Z,37.55
2019-04-06T18:31:41.333Z,37.64
2019-04-06T18:34:11.505Z,37.64
2019-04-06T18:36:50.890Z,37.79
2019-04-06T18:39:24.291Z,37.81
2019-04-06T18:41:53.578Z,37.91
2019-04-06T18:44:22.257Z,37.87
2019-04-06T18:46:50.901Z,37.89
2019-04-06T18:49:19.541Z,38.02
2019-04-06T18:51:48.379Z,38.10
2019-04-06T18:54:17.024Z,38.09
2019-04-06T18:56:46.815Z,38.17
2019-04-06T18:59:15.366Z,38.21
2019-04-06T19:01:43.928Z,38.27
2019-04-06T19:04:12.587Z,38.28
2019-04-06T19:06:41.250Z,38.43
2019-04-06T19:09:20.653Z,38.35
2019-04-06T19:11:40.903Z,38.31
2019-04-06T19:14:11.127Z,38.66
2019-04-06T19:16:39.883Z,38.48
2019-04-06T19:19:13.840Z,38.40
2019-04-06T19:21:42.604Z,38.47
2019-04-06T19:24:11.312Z,38.73
2019-04-06T19:26:40.417Z,39.00
2019-04-06T19:29:09.278Z,38.97
2019-04-06T19:31:38.086Z,39.01
2019-04-06T19:34:06.972Z,39.15
2019-04-06T19:36:35.616Z,39.15
2019-04-06T19:39:07.507Z,38.93
2019-04-06T19:41:36.165Z,39.11
2019-04-06T19:44:05.002Z,38.81
2019-04-06T19:46:34.015Z,39.00
2019-04-06T19:49:02.928Z,39.21
2019-04-06T19:51:32.020Z,39.00
2019-04-06T19:54:00.858Z,39.23
2019-04-06T19:56:30.000Z,39.15
2019-04-06T19:58:58.980Z,38.80
2019-04-06T20:01:27.718Z,38.94
2019-04-06T20:03:56.371Z,38.97
2019-04-06T20:06:25.065Z,39.46
2019-04-06T20:08:53.926Z,39.61
2019-04-06T20:11:22.480Z,39.95
2019-04-06T20:13:53.948Z,39.95
2019-04-06T20:16:22.892Z,40.38
2019-04-06T20:18:52.146Z,40.84
2019-04-06T20:21:20.789Z,40.65
2019-04-06T20:23:49.587Z,40.68
2019-04-06T20:26:19.774Z,40.75
2019-04-06T20:28:48.357Z,40.38
2019-04-06T20:31:17.018Z,40.57
2019-04-06T20:33:51.428Z,40.77
2019-04-06T20:36:17.657Z,40.88
2019-04-06T20:38:46.333Z,40.91
2019-04-06T20:41:16.471Z,41.10
2019-04-06T20:43:45.119Z,41.29
2019-04-06T20:46:13.767Z,41.25
2019-04-06T20:48:43.564Z,41.12
2019-04-06T20:51:14.697Z,41.49
2019-04-06T20:53:49.760Z,41.99
2019-04-06T20:56:21.738Z,41.70
2019-04-06T20:58:51.165Z,41.71
2019-04-06T21:01:20.035Z,41.71
2019-04-06T21:03:58.799Z,41.68
2019-04-06T21:06:19.189Z,42.16
2019-04-06T21:08:48.101Z,42.21
2019-04-06T21:11:16.728Z,42.21
2019-04-06T21:13:45.982Z,42.15
2019-04-06T21:16:15.269Z,42.27
2019-04-06T21:18:44.497Z,42.07
2019-04-06T21:21:13.159Z,42.46
2019-04-06T21:23:41.932Z,42.66
2019-04-06T21:26:11.568Z,42.70
2019-04-06T21:28:40.252Z,42.76
2019-04-06T21:31:08.908Z,42.78
2019-04-06T21:33:39.848Z,43.01
2019-04-06T21:36:08.674Z,42.56
2019-04-06T21:38:39.141Z,43.00
2019-04-06T21:41:08.006Z,42.99
2019-04-06T21:43:38.007Z,43.20
2019-04-06T21:46:06.892Z,43.24
2019-04-06T21:48:35.693Z,42.95
2019-04-06T21:51:04.427Z,42.36
2019-04-06T21:53:33.096Z,42.55
2019-04-06T21:56:07.096Z,43.00
2019-04-06T21:58:32.450Z,42.75
2019-04-06T22:01:02.625Z,42.32
2019-04-06T22:03:33.779Z,42.25
2019-04-06T22:06:02.713Z,42.29
2019-04-06T22:08:31.773Z,42.60
2019-04-06T22:11:01.943Z,42.56
2019-04-06T22:13:30.664Z,42.78
2019-04-06T22:15:59.380Z,42.44
2019-04-06T22:18:28.235Z,43.27
2019-04-06T22:20:57.029Z,43.07
2019-04-06T22:23:25.682Z,43.13
2019-04-06T22:25:55.152Z,43.10
2019-04-06T22:28:25.450Z,43.02
2019-04-06T22:30:55.584Z,42.81
2019-04-06T22:33:25.917Z,42.84
2019-04-06T22:35:55.062Z,43.04
2019-04-06T22:38:27.227Z,43.24
2019-04-06T22:40:55.828Z,43.42
2019-04-06T22:43:24.952Z,43.36
2019-04-06T22:45:53.719Z,43.49
2019-04-06T22:48:23.095Z,43.51
2019-04-06T22:50:52.512Z,43.48
2019-04-06T22:53:21.417Z,43.49
2019-04-06T22:55:50.621Z,43.63
2019-04-06T22:58:19.699Z,43.39
2019-04-06T23:00:53.433Z,43.34
2019-04-06T23:03:41.240Z,43.21
2019-04-06T23:06:17.986Z,43.42
2019-04-06T23:08:48.610Z,43.47
2019-04-06T23:11:17.247Z,43.74
2019-04-06T23:13:46.075Z,43.25
2019-04-06T23:16:14.828Z,43.50
2019-04-06T23:18:44.482Z,44.02
2019-04-06T23:21:13.507Z,44.21
2019-04-06T23:23:42.527Z,44.08
2019-04-06T23:26:11.314Z,43.91
2019-04-06T23:28:39.976Z,44.17
2019-04-06T23:31:08.731Z,43.99
2019-04-06T23:33:38.975Z,44.12
2019-04-06T23:36:08.902Z,44.84
2019-04-06T23:38:37.954Z,44.83
2019-04-06T23:41:08.113Z,44.75
2019-04-06T23:43:37.007Z,44.66
2019-04-06T23:46:06.393Z,44.91
2019-04-06T23:48:36.364Z,45.16
2019-04-06T23:51:05.242Z,44.87
2019-04-06T23:53:34.433Z,45.78
2019-04-06T23:56:03.385Z,45.33
2019-04-06T23:58:32.469Z,45.57
